sensor_id;sensor_type;location;lat;lon;timestamp;P1;durP1;ratioP1;P2;durP2;ratioP2
41946;SDS011;27638;42.184;24.848;2023-01-10T00:01:56;120.40;;;38.30;;
41946;SDS011;27638;42.184;24.848;2023-01-10T00:04:22;140.55;;;38.92;;
41946;SDS011;27638;42.184;24.848;2023-01-10T00:06:50;133.45;;;40.78;;
41946;SDS011;27638;42.184;24.848;2023-01-10T00:09:16;136.05;;;44.95;;
41946;SDS011;27638;42.184;24.848;2023-01-10T00:11:41;118.70;;;37.47;;
41946;SDS011;27638;42.184;24.848;2023-01-10T00:14:26;130.68;;;43.10;;
41946;SDS011;27638;42.184;24.848;2023-01-10T00:16:53;112.78;;;39.47;;
41946;SDS011;27638;42.184;24.848;2023-01-10T00:19:18;119.50;;;39.03;;
41946;SDS011;27638;42.184;24.848;2023-01-10T00:21:44;123.15;;;42.22;;
41946;SDS011;27638;42.184;24.848;2023-01-10T00:24:09;133.32;;;39.85;;
41946;SDS011;27638;42.184;24.848;2023-01-10T00:26:46;121.28;;;38.47;;
41946;SDS011;27638;42.184;24.848;2023-01-10T00:29:18;115.97;;;38.33;;
41946;SDS011;27638;42.184;24.848;2023-01-10T00:31:46;130.73;;;40.17;;
41946;SDS011;27638;42.184;24.848;2023-01-10T00:34:11;126.68;;;39.92;;
41946;SDS011;27638;42.184;24.848;2023-01-10T00:36:37;145.75;;;42.45;;
41946;SDS011;27638;42.184;24.848;2023-01-10T00:39:02;146.75;;;40.47;;
41946;SDS011;27638;42.184;24.848;2023-01-10T00:41:28;111.78;;;36.42;;
41946;SDS011;27638;42.184;24.848;2023-01-10T00:46:38;106.65;;;34.88;;
41946;SDS011;27638;42.184;24.848;2023-01-10T00:49:03;101.25;;;34.03;;
41946;SDS011;27638;42.184;24.848;2023-01-10T00:51:32;101.15;;;36.17;;
41946;SDS011;27638;42.184;24.848;2023-01-10T00:53:57;104.63;;;36.70;;
41946;SDS011;27638;42.184;24.848;2023-01-10T00:56:23;103.72;;;36.03;;
41946;SDS011;27638;42.184;24.848;2023-01-10T00:58:48;115.20;;;37.78;;
41946;SDS011;27638;42.184;24.848;2023-01-10T01:01:13;108.35;;;36.72;;
41946;SDS011;27638;42.184;24.848;2023-01-10T01:03:39;113.32;;;37.80;;
41946;SDS011;27638;42.184;24.848;2023-01-10T01:06:04;114.80;;;38.10;;
41946;SDS011;27638;42.184;24.848;2023-01-10T01:08:31;113.03;;;39.42;;
41946;SDS011;27638;42.184;24.848;2023-01-10T01:10:56;116.65;;;38.17;;
41946;SDS011;27638;42.184;24.848;2023-01-10T01:13:22;122.32;;;40.72;;
41946;SDS011;27638;42.184;24.848;2023-01-10T01:15:47;123.13;;;38.78;;
41946;SDS011;27638;42.184;24.848;2023-01-10T01:18:14;122.70;;;38.92;;
41946;SDS011;27638;42.184;24.848;2023-01-10T01:20:42;121.70;;;40.95;;
41946;SDS011;27638;42.184;24.848;2023-01-10T01:23:09;114.25;;;40.75;;
41946;SDS011;27638;42.184;24.848;2023-01-10T01:25:35;118.40;;;40.03;;
41946;SDS011;27638;42.184;24.848;2023-01-10T01:28:01;111.47;;;41.63;;
41946;SDS011;27638;42.184;24.848;2023-01-10T01:30:27;122.47;;;40.10;;
41946;SDS011;27638;42.184;24.848;2023-01-10T01:32:52;132.30;;;39.67;;
41946;SDS011;27638;42.184;24.848;2023-01-10T01:35:18;120.13;;;39.85;;
41946;SDS011;27638;42.184;24.848;2023-01-10T01:37:43;123.47;;;39.75;;
41946;SDS011;27638;42.184;24.848;2023-01-10T01:40:12;139.82;;;40.17;;
41946;SDS011;27638;42.184;24.848;2023-01-10T01:42:39;131.95;;;42.25;;
41946;SDS011;27638;42.184;24.848;2023-01-10T01:47:50;136.10;;;43.53;;
41946;SDS011;27638;42.184;24.848;2023-01-10T01:50:26;136.65;;;42.15;;
41946;SDS011;27638;42.184;24.848;2023-01-10T01:53:01;134.00;;;41.08;;
41946;SDS011;27638;42.184;24.848;2023-01-10T01:55:32;146.85;;;43.22;;
41946;SDS011;27638;42.184;24.848;2023-01-10T01:58:01;166.68;;;43.95;;
41946;SDS011;27638;42.184;24.848;2023-01-10T02:00:31;139.43;;;40.47;;
41946;SDS011;27638;42.184;24.848;2023-01-10T02:02:56;141.05;;;39.35;;
41946;SDS011;27638;42.184;24.848;2023-01-10T02:05:24;121.35;;;38.47;;
41946;SDS011;27638;42.184;24.848;2023-01-10T02:07:51;136.95;;;38.40;;
41946;SDS011;27638;42.184;24.848;2023-01-10T02:13:27;132.30;;;37.65;;
41946;SDS011;27638;42.184;24.848;2023-01-10T02:15:52;124.07;;;39.95;;
41946;SDS011;27638;42.184;24.848;2023-01-10T02:18:18;121.53;;;38.30;;
41946;SDS011;27638;42.184;24.848;2023-01-10T02:21:10;183.43;;;43.42;;
41946;SDS011;27638;42.184;24.848;2023-01-10T02:26:46;130.38;;;38.33;;
41946;SDS011;27638;42.184;24.848;2023-01-10T02:39:59;124.78;;;35.35;;
41946;SDS011;27638;42.184;24.848;2023-01-10T02:46:05;112.45;;;35.22;;
41946;SDS011;27638;42.184;24.848;2023-01-10T02:48:14;139.85;;;41.95;;
41946;SDS011;27638;42.184;24.848;2023-01-10T02:53:10;140.82;;;38.53;;
41946;SDS011;27638;42.184;24.848;2023-01-10T03:03:50;119.85;;;38.17;;
41946;SDS011;27638;42.184;24.848;2023-01-10T03:06:25;166.35;;;40.03;;
41946;SDS011;27638;42.184;24.848;2023-01-10T03:11:34;118.72;;;40.63;;
41946;SDS011;27638;42.184;24.848;2023-01-10T03:14:16;111.45;;;36.25;;
41946;SDS011;27638;42.184;24.848;2023-01-10T03:16:48;118.13;;;36.35;;
41946;SDS011;27638;42.184;24.848;2023-01-10T03:19:19;114.20;;;37.90;;
41946;SDS011;27638;42.184;24.848;2023-01-10T03:21:47;124.88;;;37.38;;
41946;SDS011;27638;42.184;24.848;2023-01-10T03:24:18;132.02;;;36.83;;
41946;SDS011;27638;42.184;24.848;2023-01-10T03:29:31;108.15;;;35.03;;
41946;SDS011;27638;42.184;24.848;2023-01-10T03:32:06;134.80;;;38.67;;
41946;SDS011;27638;42.184;24.848;2023-01-10T03:34:35;101.82;;;34.03;;
41946;SDS011;27638;42.184;24.848;2023-01-10T03:40:22;95.30;;;34.67;;
41946;SDS011;27638;42.184;24.848;2023-01-10T03:42:56;111.85;;;36.45;;
41946;SDS011;27638;42.184;24.848;2023-01-10T03:45:50;98.15;;;36.40;;
41946;SDS011;27638;42.184;24.848;2023-01-10T03:48:23;107.55;;;35.47;;
41946;SDS011;27638;42.184;24.848;2023-01-10T03:50:53;110.43;;;39.28;;
41946;SDS011;27638;42.184;24.848;2023-01-10T03:53:20;119.30;;;38.92;;
41946;SDS011;27638;42.184;24.848;2023-01-10T03:55:46;121.13;;;41.30;;
41946;SDS011;27638;42.184;24.848;2023-01-10T03:58:11;114.18;;;39.30;;
41946;SDS011;27638;42.184;24.848;2023-01-10T04:00:37;110.57;;;39.50;;
41946;SDS011;27638;42.184;24.848;2023-01-10T04:03:03;116.68;;;39.00;;
41946;SDS011;27638;42.184;24.848;2023-01-10T04:05:29;114.32;;;41.55;;
41946;SDS011;27638;42.184;24.848;2023-01-10T04:07:54;129.05;;;44.17;;
41946;SDS011;27638;42.184;24.848;2023-01-10T04:10:19;132.65;;;45.85;;
41946;SDS011;27638;42.184;24.848;2023-01-10T04:12:45;126.63;;;42.15;;
41946;SDS011;27638;42.184;24.848;2023-01-10T04:15:10;122.82;;;44.08;;
41946;SDS011;27638;42.184;24.848;2023-01-10T04:17:37;131.18;;;45.25;;
41946;SDS011;27638;42.184;24.848;2023-01-10T04:20:02;120.00;;;41.28;;
41946;SDS011;27638;42.184;24.848;2023-01-10T04:22:28;138.43;;;43.90;;
41946;SDS011;27638;42.184;24.848;2023-01-10T04:24:53;120.38;;;43.13;;
41946;SDS011;27638;42.184;24.848;2023-01-10T04:27:19;130.80;;;44.67;;
41946;SDS011;27638;42.184;24.848;2023-01-10T04:29:45;134.48;;;46.72;;
41946;SDS011;27638;42.184;24.848;2023-01-10T04:32:10;147.35;;;51.67;;
41946;SDS011;27638;42.184;24.848;2023-01-10T04:34:36;135.90;;;48.70;;
41946;SDS011;27638;42.184;24.848;2023-01-10T04:37:02;133.65;;;47.78;;
41946;SDS011;27638;42.184;24.848;2023-01-10T04:39:27;136.52;;;47.00;;
41946;SDS011;27638;42.184;24.848;2023-01-10T04:41:52;136.00;;;47.28;;
41946;SDS011;27638;42.184;24.848;2023-01-10T04:44:18;148.55;;;51.28;;
41946;SDS011;27638;42.184;24.848;2023-01-10T04:46:43;158.48;;;51.03;;
41946;SDS011;27638;42.184;24.848;2023-01-10T04:49:09;149.80;;;50.15;;
41946;SDS011;27638;42.184;24.848;2023-01-10T04:51:35;149.43;;;51.50;;
41946;SDS011;27638;42.184;24.848;2023-01-10T04:54:00;142.55;;;47.15;;
41946;SDS011;27638;42.184;24.848;2023-01-10T04:56:25;163.02;;;48.85;;
41946;SDS011;27638;42.184;24.848;2023-01-10T04:58:51;147.57;;;45.53;;
41946;SDS011;27638;42.184;24.848;2023-01-10T05:01:17;134.10;;;43.88;;
41946;SDS011;27638;42.184;24.848;2023-01-10T05:03:46;134.85;;;45.25;;
41946;SDS011;27638;42.184;24.848;2023-01-10T05:06:13;136.43;;;45.03;;
41946;SDS011;27638;42.184;24.848;2023-01-10T05:08:38;119.63;;;43.55;;
41946;SDS011;27638;42.184;24.848;2023-01-10T05:11:04;128.00;;;41.78;;
41946;SDS011;27638;42.184;24.848;2023-01-10T05:13:29;122.18;;;41.28;;
41946;SDS011;27638;42.184;24.848;2023-01-10T05:15:55;116.30;;;41.45;;
41946;SDS011;27638;42.184;24.848;2023-01-10T05:18:22;117.85;;;41.08;;
41946;SDS011;27638;42.184;24.848;2023-01-10T05:20:48;108.38;;;38.72;;
41946;SDS011;27638;42.184;24.848;2023-01-10T05:23:14;111.00;;;39.35;;
41946;SDS011;27638;42.184;24.848;2023-01-10T05:25:39;107.20;;;40.13;;
41946;SDS011;27638;42.184;24.848;2023-01-10T05:28:04;117.18;;;42.67;;
41946;SDS011;27638;42.184;24.848;2023-01-10T05:30:30;116.88;;;38.47;;
41946;SDS011;27638;42.184;24.848;2023-01-10T05:32:55;106.85;;;37.08;;
41946;SDS011;27638;42.184;24.848;2023-01-10T05:35:21;104.47;;;37.17;;
41946;SDS011;27638;42.184;24.848;2023-01-10T05:37:46;111.65;;;40.03;;
41946;SDS011;27638;42.184;24.848;2023-01-10T05:40:12;99.47;;;36.50;;
41946;SDS011;27638;42.184;24.848;2023-01-10T05:42:37;116.85;;;42.38;;
41946;SDS011;27638;42.184;24.848;2023-01-10T05:45:03;127.70;;;42.90;;
41946;SDS011;27638;42.184;24.848;2023-01-10T05:47:29;149.38;;;54.53;;
41946;SDS011;27638;42.184;24.848;2023-01-10T05:49:54;163.55;;;59.75;;
41946;SDS011;27638;42.184;24.848;2023-01-10T05:52:20;118.95;;;45.25;;
41946;SDS011;27638;42.184;24.848;2023-01-10T05:54:45;117.25;;;44.60;;
41946;SDS011;27638;42.184;24.848;2023-01-10T05:57:11;117.88;;;39.97;;
41946;SDS011;27638;42.184;24.848;2023-01-10T05:59:36;125.80;;;44.55;;
41946;SDS011;27638;42.184;24.848;2023-01-10T06:02:02;116.75;;;41.60;;
41946;SDS011;27638;42.184;24.848;2023-01-10T06:04:27;104.90;;;38.28;;
41946;SDS011;27638;42.184;24.848;2023-01-10T06:06:52;112.47;;;39.83;;
41946;SDS011;27638;42.184;24.848;2023-01-10T06:09:18;118.80;;;40.53;;
41946;SDS011;27638;42.184;24.848;2023-01-10T06:11:43;110.55;;;38.97;;
41946;SDS011;27638;42.184;24.848;2023-01-10T06:14:09;114.80;;;38.33;;
41946;SDS011;27638;42.184;24.848;2023-01-10T06:16:34;129.52;;;41.53;;
41946;SDS011;27638;42.184;24.848;2023-01-10T06:19:00;131.57;;;44.05;;
41946;SDS011;27638;42.184;24.848;2023-01-10T06:21:25;126.95;;;42.58;;
41946;SDS011;27638;42.184;24.848;2023-01-10T06:23:51;132.27;;;45.38;;
41946;SDS011;27638;42.184;24.848;2023-01-10T06:26:16;132.90;;;44.25;;
41946;SDS011;27638;42.184;24.848;2023-01-10T06:28:42;158.07;;;44.88;;
41946;SDS011;27638;42.184;24.848;2023-01-10T06:31:08;134.57;;;45.13;;
41946;SDS011;27638;42.184;24.848;2023-01-10T06:33:34;141.48;;;44.10;;
41946;SDS011;27638;42.184;24.848;2023-01-10T06:36:02;159.20;;;45.58;;
41946;SDS011;27638;42.184;24.848;2023-01-10T06:38:29;157.80;;;46.47;;
41946;SDS011;27638;42.184;24.848;2023-01-10T06:40:54;149.85;;;46.90;;
41946;SDS011;27638;42.184;24.848;2023-01-10T06:43:20;140.18;;;43.97;;
41946;SDS011;27638;42.184;24.848;2023-01-10T06:45:45;148.10;;;43.58;;
41946;SDS011;27638;42.184;24.848;2023-01-10T06:48:10;143.98;;;41.63;;
41946;SDS011;27638;42.184;24.848;2023-01-10T06:50:36;141.43;;;43.40;;
41946;SDS011;27638;42.184;24.848;2023-01-10T06:53:02;128.85;;;44.08;;
41946;SDS011;27638;42.184;24.848;2023-01-10T06:55:29;123.65;;;40.90;;
41946;SDS011;27638;42.184;24.848;2023-01-10T07:00:23;141.82;;;44.42;;
41946;SDS011;27638;42.184;24.848;2023-01-10T07:02:50;134.88;;;44.03;;
41946;SDS011;27638;42.184;24.848;2023-01-10T07:05:16;129.75;;;44.30;;
41946;SDS011;27638;42.184;24.848;2023-01-10T07:07:41;139.80;;;43.33;;
41946;SDS011;27638;42.184;24.848;2023-01-10T07:10:07;124.82;;;43.08;;
41946;SDS011;27638;42.184;24.848;2023-01-10T07:12:33;132.75;;;41.67;;
41946;SDS011;27638;42.184;24.848;2023-01-10T07:14:58;139.57;;;41.85;;
41946;SDS011;27638;42.184;24.848;2023-01-10T07:17:23;130.68;;;42.80;;
41946;SDS011;27638;42.184;24.848;2023-01-10T07:19:49;127.22;;;44.50;;
41946;SDS011;27638;42.184;24.848;2023-01-10T07:22:14;141.98;;;47.13;;
41946;SDS011;27638;42.184;24.848;2023-01-10T07:24:40;162.90;;;54.20;;
41946;SDS011;27638;42.184;24.848;2023-01-10T07:27:05;157.82;;;55.92;;
41946;SDS011;27638;42.184;24.848;2023-01-10T07:29:31;148.00;;;52.30;;
41946;SDS011;27638;42.184;24.848;2023-01-10T07:31:56;189.07;;;63.72;;
41946;SDS011;27638;42.184;24.848;2023-01-10T07:34:22;181.98;;;61.60;;
41946;SDS011;27638;42.184;24.848;2023-01-10T07:36:47;169.40;;;55.97;;
41946;SDS011;27638;42.184;24.848;2023-01-10T07:39:13;138.50;;;43.90;;
41946;SDS011;27638;42.184;24.848;2023-01-10T07:41:38;114.50;;;40.28;;
41946;SDS011;27638;42.184;24.848;2023-01-10T07:44:03;132.23;;;40.42;;
41946;SDS011;27638;42.184;24.848;2023-01-10T07:46:29;122.47;;;41.95;;
41946;SDS011;27638;42.184;24.848;2023-01-10T07:48:55;119.50;;;39.92;;
41946;SDS011;27638;42.184;24.848;2023-01-10T07:51:20;124.47;;;43.80;;
41946;SDS011;27638;42.184;24.848;2023-01-10T07:53:45;187.50;;;57.80;;
41946;SDS011;27638;42.184;24.848;2023-01-10T07:56:11;125.82;;;42.20;;
41946;SDS011;27638;42.184;24.848;2023-01-10T07:58:36;115.43;;;35.75;;
41946;SDS011;27638;42.184;24.848;2023-01-10T08:01:02;104.82;;;34.35;;
41946;SDS011;27638;42.184;24.848;2023-01-10T08:03:29;125.25;;;38.58;;
41946;SDS011;27638;42.184;24.848;2023-01-10T08:06:00;116.15;;;39.13;;
41946;SDS011;27638;42.184;24.848;2023-01-10T08:08:27;129.48;;;42.72;;
41946;SDS011;27638;42.184;24.848;2023-01-10T08:10:53;132.95;;;40.55;;
41946;SDS011;27638;42.184;24.848;2023-01-10T08:13:18;127.38;;;42.13;;
41946;SDS011;27638;42.184;24.848;2023-01-10T08:15:43;112.78;;;35.78;;
41946;SDS011;27638;42.184;24.848;2023-01-10T08:18:11;114.80;;;35.90;;
41946;SDS011;27638;42.184;24.848;2023-01-10T08:20:36;110.13;;;34.03;;
41946;SDS011;27638;42.184;24.848;2023-01-10T08:23:02;104.13;;;33.85;;
41946;SDS011;27638;42.184;24.848;2023-01-10T08:25:28;110.88;;;36.53;;
41946;SDS011;27638;42.184;24.848;2023-01-10T08:27:53;111.97;;;36.78;;
41946;SDS011;27638;42.184;24.848;2023-01-10T08:30:19;100.95;;;35.80;;
41946;SDS011;27638;42.184;24.848;2023-01-10T08:32:45;92.97;;;33.60;;
41946;SDS011;27638;42.184;24.848;2023-01-10T08:35:10;84.85;;;30.23;;
41946;SDS011;27638;42.184;24.848;2023-01-10T08:37:36;87.53;;;32.45;;
41946;SDS011;27638;42.184;24.848;2023-01-10T08:40:01;92.30;;;30.35;;
41946;SDS011;27638;42.184;24.848;2023-01-10T08:42:27;89.20;;;30.90;;
41946;SDS011;27638;42.184;24.848;2023-01-10T08:44:52;88.55;;;30.08;;
41946;SDS011;27638;42.184;24.848;2023-01-10T08:47:18;92.38;;;36.60;;
41946;SDS011;27638;42.184;24.848;2023-01-10T08:49:44;83.40;;;33.50;;
41946;SDS011;27638;42.184;24.848;2023-01-10T08:52:11;105.15;;;36.40;;
41946;SDS011;27638;42.184;24.848;2023-01-10T08:54:36;102.28;;;34.78;;
41946;SDS011;27638;42.184;24.848;2023-01-10T08:57:02;107.70;;;35.72;;
41946;SDS011;27638;42.184;24.848;2023-01-10T08:59:27;91.80;;;34.55;;
41946;SDS011;27638;42.184;24.848;2023-01-10T09:01:53;97.07;;;32.30;;
41946;SDS011;27638;42.184;24.848;2023-01-10T09:04:18;89.72;;;33.67;;
41946;SDS011;27638;42.184;24.848;2023-01-10T09:06:44;90.05;;;32.90;;
41946;SDS011;27638;42.184;24.848;2023-01-10T09:09:09;92.05;;;34.83;;
41946;SDS011;27638;42.184;24.848;2023-01-10T09:11:35;98.25;;;35.33;;
41946;SDS011;27638;42.184;24.848;2023-01-10T09:14:00;103.22;;;36.28;;
41946;SDS011;27638;42.184;24.848;2023-01-10T09:16:26;100.90;;;37.97;;
41946;SDS011;27638;42.184;24.848;2023-01-10T09:18:51;119.75;;;43.35;;
41946;SDS011;27638;42.184;24.848;2023-01-10T09:21:17;110.88;;;43.17;;
41946;SDS011;27638;42.184;24.848;2023-01-10T09:23:43;113.88;;;40.83;;
41946;SDS011;27638;42.184;24.848;2023-01-10T09:26:08;114.85;;;41.53;;
41946;SDS011;27638;42.184;24.848;2023-01-10T09:28:34;114.55;;;42.40;;
41946;SDS011;27638;42.184;24.848;2023-01-10T09:31:00;113.05;;;42.80;;
41946;SDS011;27638;42.184;24.848;2023-01-10T09:33:28;108.80;;;41.88;;
41946;SDS011;27638;42.184;24.848;2023-01-10T09:35:55;102.20;;;41.70;;
41946;SDS011;27638;42.184;24.848;2023-01-10T09:38:22;108.50;;;42.95;;
41946;SDS011;27638;42.184;24.848;2023-01-10T09:49:29;104.50;;;42.05;;
41946;SDS011;27638;42.184;24.848;2023-01-10T09:52:15;99.95;;;41.03;;
41946;SDS011;27638;42.184;24.848;2023-01-10T09:54:50;108.00;;;43.47;;
41946;SDS011;27638;42.184;24.848;2023-01-10T09:57:19;112.60;;;43.38;;
41946;SDS011;27638;42.184;24.848;2023-01-10T09:59:46;104.57;;;44.95;;
41946;SDS011;27638;42.184;24.848;2023-01-10T10:05:11;97.50;;;41.05;;
41946;SDS011;27638;42.184;24.848;2023-01-10T10:07:42;91.85;;;39.60;;
41946;SDS011;27638;42.184;24.848;2023-01-10T10:10:15;86.10;;;36.03;;
41946;SDS011;27638;42.184;24.848;2023-01-10T10:15:42;82.57;;;35.88;;
41946;SDS011;27638;42.184;24.848;2023-01-10T10:21:10;89.63;;;36.58;;
41946;SDS011;27638;42.184;24.848;2023-01-10T10:26:16;78.80;;;36.03;;
41946;SDS011;27638;42.184;24.848;2023-01-10T10:36:50;88.80;;;34.15;;
41946;SDS011;27638;42.184;24.848;2023-01-10T10:39:21;79.22;;;35.25;;
41946;SDS011;27638;42.184;24.848;2023-01-10T10:41:53;86.60;;;36.60;;
41946;SDS011;27638;42.184;24.848;2023-01-10T10:46:56;93.75;;;36.60;;
41946;SDS011;27638;42.184;24.848;2023-01-10T10:49:28;97.22;;;37.78;;
41946;SDS011;27638;42.184;24.848;2023-01-10T10:52:02;84.38;;;34.92;;
41946;SDS011;27638;42.184;24.848;2023-01-10T10:54:36;87.90;;;35.58;;
41946;SDS011;27638;42.184;24.848;2023-01-10T10:57:02;83.78;;;34.90;;
41946;SDS011;27638;42.184;24.848;2023-01-10T10:59:27;83.40;;;34.67;;
41946;SDS011;27638;42.184;24.848;2023-01-10T11:01:53;107.25;;;36.63;;
41946;SDS011;27638;42.184;24.848;2023-01-10T11:04:20;96.95;;;35.80;;
41946;SDS011;27638;42.184;24.848;2023-01-10T11:06:47;95.25;;;36.78;;
41946;SDS011;27638;42.184;24.848;2023-01-10T11:09:14;98.15;;;36.92;;
41946;SDS011;27638;42.184;24.848;2023-01-10T11:11:48;95.95;;;37.33;;
41946;SDS011;27638;42.184;24.848;2023-01-10T11:14:16;95.28;;;38.88;;
41946;SDS011;27638;42.184;24.848;2023-01-10T11:17:19;86.72;;;35.50;;
41946;SDS011;27638;42.184;24.848;2023-01-10T11:20:34;91.80;;;37.78;;
41946;SDS011;27638;42.184;24.848;2023-01-10T11:22:48;89.88;;;36.28;;
41946;SDS011;27638;42.184;24.848;2023-01-10T11:25:18;94.30;;;35.88;;
41946;SDS011;27638;42.184;24.848;2023-01-10T11:27:47;91.40;;;37.55;;
41946;SDS011;27638;42.184;24.848;2023-01-10T11:30:17;99.32;;;39.28;;
41946;SDS011;27638;42.184;24.848;2023-01-10T11:32:51;106.00;;;41.33;;
41946;SDS011;27638;42.184;24.848;2023-01-10T11:35:20;101.97;;;43.38;;
41946;SDS011;27638;42.184;24.848;2023-01-10T11:37:57;127.03;;;48.80;;
41946;SDS011;27638;42.184;24.848;2023-01-10T11:40:28;106.55;;;41.80;;
41946;SDS011;27638;42.184;24.848;2023-01-10T11:42:55;95.45;;;40.22;;
41946;SDS011;27638;42.184;24.848;2023-01-10T11:45:23;93.15;;;39.15;;
41946;SDS011;27638;42.184;24.848;2023-01-10T11:47:58;95.22;;;39.58;;
41946;SDS011;27638;42.184;24.848;2023-01-10T11:50:33;94.05;;;39.20;;
41946;SDS011;27638;42.184;24.848;2023-01-10T11:53:01;94.20;;;37.70;;
41946;SDS011;27638;42.184;24.848;2023-01-10T11:55:29;98.63;;;40.35;;
41946;SDS011;27638;42.184;24.848;2023-01-10T11:58:08;84.40;;;37.22;;
41946;SDS011;27638;42.184;24.848;2023-01-10T12:00:40;83.35;;;36.17;;
41946;SDS011;27638;42.184;24.848;2023-01-10T12:06:00;87.43;;;37.20;;
41946;SDS011;27638;42.184;24.848;2023-01-10T12:08:34;84.35;;;36.15;;
41946;SDS011;27638;42.184;24.848;2023-01-10T12:11:22;85.20;;;34.80;;
41946;SDS011;27638;42.184;24.848;2023-01-10T12:13:52;87.60;;;36.45;;
41946;SDS011;27638;42.184;24.848;2023-01-10T12:16:27;88.30;;;37.72;;
41946;SDS011;27638;42.184;24.848;2023-01-10T12:18:55;82.80;;;38.15;;
41946;SDS011;27638;42.184;24.848;2023-01-10T12:21:37;86.88;;;38.08;;
41946;SDS011;27638;42.184;24.848;2023-01-10T12:24:06;86.10;;;39.03;;
41946;SDS011;27638;42.184;24.848;2023-01-10T12:26:39;84.60;;;37.22;;
41946;SDS011;27638;42.184;24.848;2023-01-10T12:29:10;67.55;;;29.65;;
41946;SDS011;27638;42.184;24.848;2023-01-10T12:31:39;77.45;;;31.88;;
41946;SDS011;27638;42.184;24.848;2023-01-10T12:34:27;75.53;;;31.83;;
41946;SDS011;27638;42.184;24.848;2023-01-10T12:39:50;63.30;;;30.85;;
41946;SDS011;27638;42.184;24.848;2023-01-10T12:42:26;65.38;;;28.98;;
41946;SDS011;27638;42.184;24.848;2023-01-10T12:45:21;57.83;;;27.52;;
41946;SDS011;27638;42.184;24.848;2023-01-10T12:48:12;64.38;;;27.48;;
41946;SDS011;27638;42.184;24.848;2023-01-10T12:50:54;62.08;;;26.58;;
41946;SDS011;27638;42.184;24.848;2023-01-10T12:53:36;59.95;;;27.75;;
41946;SDS011;27638;42.184;24.848;2023-01-10T12:56:04;60.00;;;30.05;;
41946;SDS011;27638;42.184;24.848;2023-01-10T13:01:04;76.90;;;31.88;;
41946;SDS011;27638;42.184;24.848;2023-01-10T13:03:31;64.35;;;29.90;;
41946;SDS011;27638;42.184;24.848;2023-01-10T13:05:59;70.25;;;33.05;;
41946;SDS011;27638;42.184;24.848;2023-01-10T13:08:27;90.95;;;43.55;;
41946;SDS011;27638;42.184;24.848;2023-01-10T13:10:57;87.35;;;36.22;;
41946;SDS011;27638;42.184;24.848;2023-01-10T13:16:03;61.08;;;30.15;;
41946;SDS011;27638;42.184;24.848;2023-01-10T13:22:16;62.63;;;29.98;;
41946;SDS011;27638;42.184;24.848;2023-01-10T13:24:58;71.40;;;30.92;;
41946;SDS011;27638;42.184;24.848;2023-01-10T13:27:32;59.75;;;27.50;;
41946;SDS011;27638;42.184;24.848;2023-01-10T13:29:58;52.85;;;24.85;;
41946;SDS011;27638;42.184;24.848;2023-01-10T13:32:28;61.60;;;27.65;;
41946;SDS011;27638;42.184;24.848;2023-01-10T13:35:10;66.60;;;28.75;;
41946;SDS011;27638;42.184;24.848;2023-01-10T13:37:42;65.45;;;30.35;;
41946;SDS011;27638;42.184;24.848;2023-01-10T13:40:24;61.20;;;28.23;;
41946;SDS011;27638;42.184;24.848;2023-01-10T13:51:27;66.95;;;31.98;;
41946;SDS011;27638;42.184;24.848;2023-01-10T13:53:55;64.45;;;31.60;;
41946;SDS011;27638;42.184;24.848;2023-01-10T14:02:20;53.63;;;25.45;;
41946;SDS011;27638;42.184;24.848;2023-01-10T14:04:59;54.60;;;26.92;;
41946;SDS011;27638;42.184;24.848;2023-01-10T14:10:20;52.90;;;26.70;;
41946;SDS011;27638;42.184;24.848;2023-01-10T14:12:52;54.95;;;26.95;;
41946;SDS011;27638;42.184;24.848;2023-01-10T14:20:26;56.10;;;27.13;;
41946;SDS011;27638;42.184;24.848;2023-01-10T14:25:40;57.67;;;26.25;;
41946;SDS011;27638;42.184;24.848;2023-01-10T14:28:24;47.78;;;24.02;;
41946;SDS011;27638;42.184;24.848;2023-01-10T14:31:16;79.93;;;39.85;;
41946;SDS011;27638;42.184;24.848;2023-01-10T14:33:44;53.35;;;26.80;;
41946;SDS011;27638;42.184;24.848;2023-01-10T14:36:14;49.75;;;23.38;;
41946;SDS011;27638;42.184;24.848;2023-01-10T14:38:52;55.97;;;25.25;;
41946;SDS011;27638;42.184;24.848;2023-01-10T14:41:26;59.35;;;27.38;;
41946;SDS011;27638;42.184;24.848;2023-01-10T14:43:56;55.08;;;28.35;;
41946;SDS011;27638;42.184;24.848;2023-01-10T14:46:38;58.83;;;29.25;;
41946;SDS011;27638;42.184;24.848;2023-01-10T14:49:23;57.35;;;29.10;;
41946;SDS011;27638;42.184;24.848;2023-01-10T14:51:54;55.00;;;26.85;;
41946;SDS011;27638;42.184;24.848;2023-01-10T14:54:34;63.53;;;28.50;;
41946;SDS011;27638;42.184;24.848;2023-01-10T14:57:00;58.25;;;26.83;;
41946;SDS011;27638;42.184;24.848;2023-01-10T14:59:29;55.42;;;26.65;;
41946;SDS011;27638;42.184;24.848;2023-01-10T15:04:48;61.50;;;31.25;;
41946;SDS011;27638;42.184;24.848;2023-01-10T15:07:19;66.10;;;32.85;;
41946;SDS011;27638;42.184;24.848;2023-01-10T15:09:48;67.35;;;33.55;;
41946;SDS011;27638;42.184;24.848;2023-01-10T15:12:15;75.75;;;36.42;;
41946;SDS011;27638;42.184;24.848;2023-01-10T15:14:42;62.17;;;32.45;;
41946;SDS011;27638;42.184;24.848;2023-01-10T15:17:10;63.55;;;32.92;;
41946;SDS011;27638;42.184;24.848;2023-01-10T15:19:41;58.65;;;31.63;;
41946;SDS011;27638;42.184;24.848;2023-01-10T15:22:15;57.08;;;29.10;;
41946;SDS011;27638;42.184;24.848;2023-01-10T15:24:59;51.25;;;27.40;;
41946;SDS011;27638;42.184;24.848;2023-01-10T15:27:25;53.95;;;26.15;;
41946;SDS011;27638;42.184;24.848;2023-01-10T15:29:50;46.28;;;25.63;;
41946;SDS011;27638;42.184;24.848;2023-01-10T15:34:57;51.42;;;26.92;;
41946;SDS011;27638;42.184;24.848;2023-01-10T15:37:24;75.88;;;45.92;;
41946;SDS011;27638;42.184;24.848;2023-01-10T15:39:58;59.80;;;30.25;;
41946;SDS011;27638;42.184;24.848;2023-01-10T15:42:24;55.08;;;27.23;;
41946;SDS011;27638;42.184;24.848;2023-01-10T15:44:51;51.35;;;26.92;;
41946;SDS011;27638;42.184;24.848;2023-01-10T15:49:54;50.85;;;25.77;;
41946;SDS011;27638;42.184;24.848;2023-01-10T15:52:20;58.10;;;28.75;;
41946;SDS011;27638;42.184;24.848;2023-01-10T15:54:46;51.83;;;26.48;;
41946;SDS011;27638;42.184;24.848;2023-01-10T15:57:30;51.50;;;28.17;;
41946;SDS011;27638;42.184;24.848;2023-01-10T15:59:57;65.35;;;31.30;;
41946;SDS011;27638;42.184;24.848;2023-01-10T16:02:24;66.05;;;34.00;;
41946;SDS011;27638;42.184;24.848;2023-01-10T16:05:07;57.65;;;30.27;;
41946;SDS011;27638;42.184;24.848;2023-01-10T16:07:43;51.80;;;27.13;;
41946;SDS011;27638;42.184;24.848;2023-01-10T16:10:23;53.45;;;26.85;;
41946;SDS011;27638;42.184;24.848;2023-01-10T16:12:50;53.33;;;25.92;;
41946;SDS011;27638;42.184;24.848;2023-01-10T16:15:35;53.30;;;28.58;;
41946;SDS011;27638;42.184;24.848;2023-01-10T16:18:03;52.47;;;27.33;;